createdAt,value
2023-05-04T00:09:25.375Z,67.29
2023-05-04T00:18:59.314Z,67.18
2023-05-04T00:28:34.780Z,67.64
2023-05-04T00:38:08.442Z,68.02
2023-05-04T00:47:42.456Z,68.18
2023-05-04T00:57:14.644Z,68.63
2023-05-04T01:06:48.638Z,68.57
2023-05-04T01:16:24.523Z,68.13
2023-05-04T01:25:57.080Z,67.61
2023-05-04T01:35:32.832Z,67.09
2023-05-04T01:45:05.315Z,67.28
2023-05-04T01:54:39.524Z,67.23
2023-05-04T02:04:13.774Z,67.37
2023-05-04T02:13:48.078Z,68.29
2023-05-04T02:23:23.225Z,68.54
2023-05-04T02:32:56.730Z,68.87
2023-05-04T02:42:30.673Z,69.45
2023-05-04T02:52:04.382Z,70.55
2023-05-04T02:53:08.370Z,70.34
2023-05-04T03:02:39.786Z,70.74
2023-05-04T03:12:13.571Z,71.19
2023-05-04T03:21:48.974Z,71.38
2023-05-04T03:31:21.204Z,72.39
2023-05-04T03:40:56.664Z,73.09
2023-05-04T03:50:29.111Z,73.60
2023-05-04T04:00:05.136Z,72.99
2023-05-04T04:09:39.130Z,72.91
2023-05-04T04:19:11.551Z,72.84
2023-05-04T04:28:45.829Z,74.18
2023-05-04T04:38:21.488Z,73.46
2023-05-04T04:47:54.006Z,73.60
2023-05-04T04:57:29.949Z,74.19
2023-05-04T05:07:02.735Z,73.94
2023-05-04T05:16:36.875Z,74.39
2023-05-04T05:26:13.260Z,74.44
2023-05-04T05:35:47.050Z,73.93
2023-05-04T05:45:20.376Z,74.19
2023-05-04T05:54:54.653Z,72.34
2023-05-04T05:55:58.757Z,73.27
2023-05-04T06:06:45.713Z,69.97
2023-05-04T06:07:47.426Z,70.18
2023-05-04T06:08:49.755Z,69.74
2023-05-04T06:09:52.217Z,69.34
2023-05-04T06:10:56.298Z,69.69
2023-05-04T06:11:58.586Z,69.26
2023-05-04T06:13:01.036Z,68.86
2023-05-04T06:14:03.389Z,69.56
2023-05-04T06:15:05.895Z,69.62
2023-05-04T06:16:08.288Z,68.43
2023-05-04T06:17:10.704Z,68.21
2023-05-04T06:18:13.125Z,68.88
2023-05-04T06:19:17.190Z,68.28
2023-05-04T06:20:19.473Z,68.17
2023-05-04T06:21:21.918Z,68.28
2023-05-04T06:22:24.350Z,68.04
2023-05-04T06:23:28.359Z,68.34
2023-05-04T06:24:31.715Z,68.73
2023-05-04T06:25:35.663Z,69.22
2023-05-04T06:26:37.873Z,68.40
2023-05-04T06:27:40.313Z,67.46
2023-05-04T06:28:42.701Z,66.97
2023-05-04T06:29:46.765Z,67.83
2023-05-04T06:30:50.629Z,69.09
2023-05-04T06:31:54.681Z,67.58
2023-05-04T06:32:58.676Z,68.03
2023-05-04T06:34:00.909Z,68.00
2023-05-04T06:35:05.017Z,66.61
2023-05-04T06:36:08.877Z,66.53
2023-05-04T06:37:11.531Z,65.82
2023-05-04T06:46:45.262Z,66.97
2023-05-04T06:47:47.672Z,66.54
2023-05-04T06:48:51.653Z,66.70
2023-05-04T06:49:53.954Z,67.30
2023-05-04T06:50:56.378Z,67.11
2023-05-04T06:51:58.837Z,66.73
2023-05-04T06:53:01.323Z,66.26
2023-05-04T06:54:05.416Z,66.01
2023-05-04T06:55:10.477Z,65.49
2023-05-04T06:56:12.798Z,65.46
2023-05-04T06:57:15.254Z,65.23
2023-05-04T06:58:17.614Z,65.48
2023-05-04T06:59:21.787Z,66.00
2023-05-04T07:00:25.630Z,66.41
2023-05-04T07:01:27.900Z,65.02
2023-05-04T07:02:30.357Z,64.20
2023-05-04T07:03:34.379Z,64.10
2023-05-04T07:04:36.709Z,64.03
2023-05-04T07:05:40.710Z,64.30
2023-05-04T07:06:43.132Z,65.19
2023-05-04T07:07:47.629Z,64.15
2023-05-04T07:08:49.467Z,64.04
2023-05-04T07:09:53.508Z,64.09
2023-05-04T07:10:55.887Z,65.71
2023-05-04T07:11:58.250Z,64.56
2023-05-04T07:21:32.535Z,64.26
2023-05-04T07:22:36.446Z,64.44
2023-05-04T07:23:40.481Z,65.53
2023-05-04T07:24:44.415Z,66.32
2023-05-04T07:25:48.287Z,65.34
2023-05-04T07:26:50.693Z,62.71
2023-05-04T07:27:54.688Z,63.00
2023-05-04T07:28:56.951Z,63.13
2023-05-04T07:30:00.967Z,62.93
2023-05-04T07:31:03.359Z,62.81
2023-05-04T07:32:07.416Z,62.28
2023-05-04T07:33:09.805Z,62.50
2023-05-04T07:34:12.100Z,62.93
2023-05-04T07:35:16.092Z,61.67
2023-05-04T07:36:18.458Z,62.01
2023-05-04T07:37:20.861Z,63.24
2023-05-04T07:38:23.375Z,63.06
2023-05-04T07:39:27.358Z,63.93
2023-05-04T07:40:29.681Z,62.10
2023-05-04T07:41:32.106Z,61.95
2023-05-04T07:42:34.495Z,61.74
2023-05-04T07:43:38.544Z,63.12
2023-05-04T07:44:40.888Z,62.63
2023-05-04T07:45:45.030Z,62.07
2023-05-04T07:46:49.845Z,61.92
2023-05-04T07:47:53.710Z,62.39
2023-05-04T07:48:57.577Z,62.31
2023-05-04T07:49:59.860Z,61.99
2023-05-04T07:51:02.344Z,62.87
2023-05-04T07:52:04.766Z,61.29
2023-05-04T07:53:07.140Z,59.85
2023-05-04T07:54:09.763Z,59.84
2023-05-04T07:55:13.725Z,60.08
2023-05-04T07:56:17.063Z,59.69
2023-05-04T07:57:19.456Z,60.18
2023-05-04T07:58:21.879Z,59.61
2023-05-04T07:59:24.296Z,59.46
2023-05-04T08:00:26.755Z,59.73
2023-05-04T08:01:30.799Z,59.00
2023-05-04T08:02:33.200Z,58.85
2023-05-04T08:03:37.155Z,58.19
2023-05-04T08:04:39.481Z,58.33
2023-05-04T08:05:41.944Z,58.11
2023-05-04T08:06:44.428Z,59.75
2023-05-04T08:07:48.511Z,59.01
2023-05-04T08:08:53.405Z,58.83
2023-05-04T08:09:57.199Z,58.50
2023-05-04T08:11:08.391Z,58.49
2023-05-04T08:12:03.591Z,58.48
2023-05-04T08:13:05.872Z,58.55
2023-05-04T08:14:09.957Z,58.53
2023-05-04T08:15:13.773Z,59.75
2023-05-04T08:16:16.097Z,60.75
2023-05-04T08:17:20.164Z,58.22
2023-05-04T08:18:24.114Z,58.59
2023-05-04T08:19:26.396Z,59.55
2023-05-04T08:20:30.389Z,59.69
2023-05-04T08:21:32.699Z,58.44
2023-05-04T08:22:36.762Z,59.63
2023-05-04T08:23:40.650Z,58.50
2023-05-04T08:24:42.903Z,58.83
2023-05-04T08:25:45.454Z,59.17
2023-05-04T08:26:55.864Z,58.52
2023-05-04T08:27:51.887Z,58.79
2023-05-04T08:28:54.160Z,58.22
2023-05-04T08:29:56.601Z,58.02
2023-05-04T08:30:58.993Z,58.21
2023-05-04T08:32:01.588Z,57.97
2023-05-04T08:33:05.560Z,57.77
2023-05-04T08:34:09.441Z,58.39
2023-05-04T08:35:13.352Z,57.76
2023-05-04T08:36:16.757Z,57.15
2023-05-04T08:37:19.047Z,57.26
2023-05-04T08:38:21.535Z,56.16
2023-05-04T08:39:25.550Z,56.03
2023-05-04T08:40:27.958Z,57.28
2023-05-04T08:41:30.394Z,56.99
2023-05-04T08:42:34.444Z,57.20
2023-05-04T08:43:36.774Z,56.71
2023-05-04T08:44:39.223Z,57.63
2023-05-04T08:45:43.318Z,57.96
2023-05-04T08:46:47.682Z,56.75
2023-05-04T08:49:07.708Z,54.60
2023-05-04T08:50:09.981Z,55.41
2023-05-04T08:51:13.759Z,55.51
2023-05-04T08:52:17.686Z,55.09
2023-05-04T08:53:23.065Z,54.88
2023-05-04T08:54:31.942Z,54.58
2023-05-04T08:55:36.817Z,55.30
2023-05-04T08:56:40.821Z,54.20
2023-05-04T08:57:44.674Z,54.22
2023-05-04T08:58:48.642Z,54.12
2023-05-04T08:59:52.500Z,54.40
2023-05-04T09:00:54.871Z,54.89
2023-05-04T09:01:57.255Z,55.83
2023-05-04T09:02:59.849Z,56.69
2023-05-04T09:04:03.903Z,55.16
2023-05-04T09:05:06.267Z,55.22
2023-05-04T09:06:08.598Z,55.27
2023-05-04T09:07:11.008Z,54.16
2023-05-04T09:08:15.313Z,55.24
2023-05-04T09:09:19.188Z,56.03
2023-05-04T09:18:51.362Z,56.69
2023-05-04T09:19:53.719Z,56.38
2023-05-04T09:20:56.168Z,55.80
2023-05-04T09:21:58.689Z,55.53
2023-05-04T09:23:02.727Z,55.12
2023-05-04T09:24:06.688Z,56.10
2023-05-04T09:25:09.042Z,55.78
2023-05-04T09:26:11.580Z,56.15
2023-05-04T09:27:14.094Z,55.74
2023-05-04T09:28:16.486Z,57.25
2023-05-04T09:29:20.568Z,54.66
2023-05-04T09:30:24.462Z,57.87
2023-05-04T09:31:28.510Z,57.12
2023-05-04T09:32:36.421Z,55.78
2023-05-04T09:33:40.162Z,56.17
2023-05-04T09:34:44.093Z,55.49
2023-05-04T09:35:46.379Z,54.93
2023-05-04T09:36:48.873Z,54.99
2023-05-04T09:37:53.015Z,56.07
2023-05-04T09:38:55.487Z,56.23
2023-05-04T09:39:59.505Z,55.23
2023-05-04T09:41:01.920Z,54.83
2023-05-04T09:42:04.430Z,55.51
2023-05-04T09:43:10.888Z,54.77
2023-05-04T09:44:18.084Z,53.65
2023-05-04T09:45:20.525Z,54.39
2023-05-04T09:46:23.003Z,55.04
2023-05-04T09:47:27.018Z,53.55
2023-05-04T09:48:29.415Z,53.85
2023-05-04T09:49:31.821Z,54.95
2023-05-04T09:50:35.896Z,52.03
2023-05-04T09:51:38.244Z,54.38
2023-05-04T09:52:40.710Z,53.39
2023-05-04T09:53:44.798Z,54.69
2023-05-04T09:54:48.645Z,54.51
2023-05-04T09:55:50.998Z,55.12
2023-05-04T09:56:53.413Z,54.94
2023-05-04T09:57:55.937Z,52.65
2023-05-04T09:58:58.407Z,51.80
2023-05-04T10:00:00.826Z,55.00
2023-05-04T10:01:03.299Z,54.18
2023-05-04T10:02:14.392Z,54.36
2023-05-04T10:03:08.233Z,50.70
2023-05-04T10:04:10.661Z,52.25
2023-05-04T10:05:14.812Z,53.74
2023-05-04T10:06:17.100Z,55.45
2023-05-04T10:07:21.289Z,55.58
2023-05-04T10:08:23.415Z,53.50
2023-05-04T10:09:27.509Z,54.97
2023-05-04T10:10:29.851Z,51.77
2023-05-04T10:11:33.859Z,51.47
2023-05-04T10:12:37.876Z,49.67
2023-05-04T10:13:40.161Z,52.69
2023-05-04T10:14:42.719Z,50.25
2023-05-04T10:15:45.108Z,49.46
2023-05-04T10:16:49.119Z,50.54
2023-05-04T10:17:53.363Z,52.38
2023-05-04T10:18:57.212Z,50.52
2023-05-04T10:19:59.587Z,53.08
2023-05-04T10:21:02.010Z,51.68
2023-05-04T10:22:06.118Z,52.80
2023-05-04T10:23:08.419Z,50.04
2023-05-04T10:24:10.886Z,51.06
2023-05-04T10:25:13.361Z,51.35
2023-05-04T10:26:17.398Z,51.25
2023-05-04T10:27:19.711Z,51.23
2023-05-04T10:28:22.240Z,52.40
2023-05-04T10:29:24.674Z,49.05
2023-05-04T10:30:28.790Z,48.58
2023-05-04T10:31:32.785Z,50.86
2023-05-04T10:32:36.640Z,48.30
2023-05-04T10:33:40.581Z,48.98
2023-05-04T10:34:44.457Z,49.00
2023-05-04T10:35:48.426Z,49.08
2023-05-04T10:36:52.378Z,50.53
2023-05-04T10:37:54.776Z,50.04
2023-05-04T10:38:58.752Z,51.54
2023-05-04T10:40:01.106Z,49.42
2023-05-04T10:41:05.143Z,48.90
2023-05-04T10:42:07.492Z,48.55
2023-05-04T10:43:11.532Z,49.46
2023-05-04T10:44:13.814Z,49.69
2023-05-04T10:45:16.218Z,48.38
2023-05-04T10:46:18.725Z,48.82
2023-05-04T10:47:22.760Z,49.78
2023-05-04T10:48:25.116Z,51.54
2023-05-04T10:49:29.177Z,50.75
2023-05-04T10:50:33.157Z,47.91
2023-05-04T10:51:42.606Z,47.11
2023-05-04T10:52:37.853Z,45.72
2023-05-04T10:53:41.894Z,47.67
2023-05-04T10:54:44.196Z,48.97
2023-05-04T10:55:53.568Z,49.33
2023-05-04T10:57:00.547Z,49.09
2023-05-04T10:58:04.412Z,49.40
2023-05-04T10:59:12.426Z,48.33
2023-05-04T11:00:18.980Z,49.13
2023-05-04T11:01:22.748Z,49.07
2023-05-04T11:02:25.015Z,47.29
2023-05-04T11:03:27.514Z,47.05
2023-05-04T11:04:31.561Z,47.02
2023-05-04T11:05:33.877Z,45.92
2023-05-04T11:06:37.936Z,45.46
2023-05-04T11:07:40.343Z,47.13
2023-05-04T11:08:44.463Z,49.83
2023-05-04T11:09:48.508Z,48.50
2023-05-04T11:10:50.780Z,46.77
2023-05-04T11:11:54.811Z,47.79
2023-05-04T11:12:57.265Z,45.67
2023-05-04T11:14:01.299Z,48.01
2023-05-04T11:15:03.815Z,48.64
2023-05-04T11:16:06.162Z,47.01
2023-05-04T11:17:20.141Z,45.58
2023-05-04T11:18:11.089Z,47.07
2023-05-04T11:19:15.246Z,47.79
2023-05-04T11:20:17.597Z,46.09
2023-05-04T11:21:21.718Z,47.25
2023-05-04T11:22:24.128Z,48.60
2023-05-04T11:23:26.580Z,46.32
2023-05-04T11:24:29.043Z,47.59
2023-05-04T11:25:31.478Z,44.85
2023-05-04T11:26:35.528Z,47.56
2023-05-04T11:27:39.419Z,46.47
2023-05-04T11:28:43.423Z,48.28
2023-05-04T11:29:47.496Z,47.58
2023-05-04T11:30:49.885Z,46.19
2023-05-04T11:31:53.985Z,45.03
2023-05-04T11:32:56.383Z,45.08
2023-05-04T11:34:00.331Z,46.65
2023-05-04T11:35:05.693Z,43.87
2023-05-04T11:36:07.850Z,45.12
2023-05-04T11:37:11.912Z,46.49
2023-05-04T11:38:15.891Z,47.07
2023-05-04T11:39:18.215Z,44.08
2023-05-04T11:40:20.714Z,45.08
2023-05-04T11:41:24.807Z,46.60
2023-05-04T11:42:27.086Z,43.78
2023-05-04T11:43:31.183Z,43.90
2023-05-04T11:44:34.615Z,46.54
2023-05-04T11:45:37.138Z,45.05
2023-05-04T11:46:39.588Z,44.58
2023-05-04T11:47:42.132Z,42.56
2023-05-04T11:48:46.183Z,44.63
2023-05-04T11:49:48.561Z,43.28
2023-05-04T11:50:51.025Z,44.13
2023-05-04T11:51:55.114Z,42.93
2023-05-04T11:53:00.123Z,44.72
2023-05-04T11:54:02.467Z,47.55
2023-05-04T11:55:06.671Z,43.57
2023-05-04T11:56:09.898Z,45.75
2023-05-04T11:57:12.161Z,46.25
2023-05-04T11:58:16.268Z,44.44
2023-05-04T11:59:18.604Z,45.41
2023-05-04T12:00:21.067Z,44.90
2023-05-04T12:01:23.523Z,45.98
2023-05-04T12:02:26.042Z,44.52
2023-05-04T12:03:39.612Z,41.39
2023-05-04T12:04:30.923Z,41.73
2023-05-04T12:05:33.404Z,43.35
2023-05-04T12:06:35.864Z,41.88
2023-05-04T12:07:38.322Z,41.33
2023-05-04T12:08:42.570Z,42.29
2023-05-04T12:09:44.710Z,42.43
2023-05-04T12:19:19.022Z,43.71
2023-05-04T12:20:21.464Z,42.00
2023-05-04T12:21:23.979Z,41.24
2023-05-04T12:22:26.532Z,43.20
2023-05-04T12:23:30.636Z,40.65
2023-05-04T12:24:32.992Z,39.68
2023-05-04T12:25:41.486Z,39.75
2023-05-04T12:26:42.035Z,39.57
2023-05-04T12:27:45.994Z,42.10
2023-05-04T12:28:49.919Z,41.21
2023-05-04T12:29:52.353Z,42.81
2023-05-04T12:30:54.872Z,42.02
2023-05-04T12:31:59.016Z,39.78
2023-05-04T12:33:01.380Z,40.94
2023-05-04T12:34:05.464Z,41.83
2023-05-04T12:35:09.535Z,40.27
2023-05-04T12:36:13.418Z,41.26
2023-05-04T12:37:15.795Z,40.66
2023-05-04T12:38:18.297Z,40.05
2023-05-04T12:39:20.809Z,42.79
2023-05-04T12:40:28.486Z,38.24
2023-05-04T12:41:27.474Z,37.82
2023-05-04T12:42:29.870Z,41.61
2023-05-04T12:43:32.352Z,37.12
2023-05-04T12:44:34.866Z,37.35
2023-05-04T12:45:37.343Z,36.48
2023-05-04T12:46:41.451Z,39.70
2023-05-04T12:47:45.420Z,37.35
2023-05-04T12:48:47.800Z,39.54
2023-05-04T12:49:51.909Z,38.16
2023-05-04T12:50:54.371Z,38.89
2023-05-04T12:51:58.445Z,35.13
2023-05-04T12:53:00.898Z,36.09
2023-05-04T12:54:03.291Z,37.91
2023-05-04T12:55:07.583Z,38.85
2023-05-04T12:56:11.434Z,35.88
2023-05-04T12:57:15.411Z,37.58
2023-05-04T12:58:17.790Z,38.85
2023-05-04T12:59:20.331Z,38.21
2023-05-04T13:00:24.432Z,38.34
2023-05-04T13:01:29.469Z,35.86
2023-05-04T13:02:31.759Z,34.06
2023-05-04T13:03:34.263Z,34.77
2023-05-04T13:04:36.726Z,38.93
2023-05-04T13:05:39.262Z,35.08
2023-05-04T13:06:43.403Z,35.74
2023-05-04T13:07:45.716Z,36.36
2023-05-04T13:08:48.253Z,35.93
2023-05-04T13:09:50.802Z,37.78
2023-05-04T13:10:54.936Z,34.33
2023-05-04T13:11:57.353Z,36.70
2023-05-04T13:12:59.827Z,34.45
2023-05-04T13:14:03.909Z,36.41
2023-05-04T13:15:06.515Z,35.82
2023-05-04T13:16:10.513Z,36.30
2023-05-04T13:17:12.901Z,37.93
2023-05-04T13:18:17.221Z,36.03
2023-05-04T13:19:19.630Z,34.47
2023-05-04T13:20:22.160Z,34.32
2023-05-04T13:21:26.224Z,33.35
2023-05-04T13:22:28.599Z,31.74
2023-05-04T13:23:35.112Z,31.14
2023-05-04T13:24:39.189Z,33.16
2023-05-04T13:34:11.706Z,32.62
2023-05-04T13:35:14.113Z,32.92
2023-05-04T13:36:16.610Z,32.54
2023-05-04T13:37:20.763Z,31.33
2023-05-04T13:38:24.782Z,30.95
2023-05-04T13:39:27.126Z,30.90
2023-05-04T13:40:29.670Z,33.72
2023-05-04T13:41:32.196Z,33.09
2023-05-04T13:42:37.283Z,33.52
2023-05-04T13:43:40.388Z,31.16
2023-05-04T13:44:42.820Z,33.19
2023-05-04T13:45:45.310Z,30.68
2023-05-04T13:46:49.503Z,31.88
2023-05-04T13:47:51.895Z,32.29
2023-05-04T13:48:56.431Z,32.73
2023-05-04T13:49:56.839Z,31.38
2023-05-04T13:51:00.963Z,30.94
2023-05-04T14:00:33.392Z,30.23
2023-05-04T14:01:37.603Z,30.03
2023-05-04T14:02:40.125Z,32.61
2023-05-04T14:03:42.537Z,30.14
2023-05-04T14:04:45.064Z,31.79
2023-05-04T14:05:47.663Z,31.62
2023-05-04T14:06:51.802Z,30.01
2023-05-04T14:07:55.796Z,29.91
2023-05-04T14:08:58.120Z,30.34
2023-05-04T14:10:00.714Z,30.51
2023-05-04T14:11:03.254Z,29.14
2023-05-04T14:12:07.357Z,29.91
2023-05-04T14:13:11.384Z,28.18
2023-05-04T14:14:13.717Z,28.78
2023-05-04T14:15:16.199Z,27.51
2023-05-04T14:16:20.263Z,29.47
2023-05-04T14:17:22.684Z,29.21
2023-05-04T14:18:26.817Z,31.96
2023-05-04T14:19:30.838Z,29.82
2023-05-04T14:20:33.243Z,29.71
2023-05-04T14:21:35.724Z,30.18
2023-05-04T14:22:38.381Z,28.23
2023-05-04T14:23:42.423Z,29.86
2023-05-04T14:24:44.818Z,29.72
2023-05-04T14:25:47.324Z,27.52
2023-05-04T14:26:51.508Z,30.40
2023-05-04T14:27:55.406Z,28.34
2023-05-04T14:28:57.840Z,29.44
2023-05-04T14:30:00.307Z,28.19
2023-05-04T14:31:02.814Z,27.84
2023-05-04T14:32:05.369Z,26.76
2023-05-04T14:33:09.482Z,26.92
2023-05-04T14:34:13.513Z,26.99
2023-05-04T14:35:17.443Z,26.14
2023-05-04T14:36:19.809Z,26.86
2023-05-04T14:37:22.305Z,29.40
2023-05-04T14:38:26.428Z,30.52
2023-05-04T14:39:30.464Z,30.42
2023-05-04T14:40:32.885Z,32.38
2023-05-04T14:41:37.044Z,27.84
2023-05-04T14:42:39.471Z,30.13
2023-05-04T14:43:41.974Z,27.62
2023-05-04T14:44:44.470Z,28.81
2023-05-04T14:45:47.018Z,30.91
2023-05-04T14:46:49.556Z,29.75
2023-05-04T14:47:52.208Z,26.97
2023-05-04T14:48:54.554Z,28.05
2023-05-04T14:49:57.062Z,28.70
2023-05-04T14:50:59.672Z,29.37
2023-05-04T14:52:02.218Z,28.97
2023-05-04T14:53:06.327Z,28.40
2023-05-04T14:54:10.332Z,30.36
2023-05-04T14:55:14.336Z,27.80
2023-05-04T14:56:18.295Z,30.39
2023-05-04T14:57:20.714Z,28.84
2023-05-04T14:58:23.230Z,28.00
2023-05-04T14:59:25.770Z,28.38
2023-05-04T15:00:28.249Z,28.14
2023-05-04T15:01:32.392Z,30.14
2023-05-04T15:02:34.831Z,27.30
2023-05-04T15:03:37.397Z,28.60
2023-05-04T15:04:41.550Z,27.82
2023-05-04T15:05:45.388Z,27.80
2023-05-04T15:06:47.833Z,27.65
2023-05-04T15:07:50.272Z,28.10
2023-05-04T15:08:52.814Z,30.30
2023-05-04T15:09:56.951Z,29.99
2023-05-04T15:10:59.359Z,31.10
2023-05-04T15:12:01.864Z,33.37
2023-05-04T15:13:05.966Z,30.60
2023-05-04T15:14:08.356Z,30.92
2023-05-04T15:15:11.010Z,28.07
2023-05-04T15:16:13.484Z,28.73
2023-05-04T15:17:19.510Z,29.01
2023-05-04T15:18:21.740Z,28.21
2023-05-04T15:19:24.129Z,28.18
2023-05-04T15:20:26.587Z,28.88
2023-05-04T15:21:30.675Z,29.10
2023-05-04T15:22:34.674Z,28.35
2023-05-04T15:23:37.046Z,28.65
2023-05-04T15:24:39.619Z,29.87
2023-05-04T15:25:43.683Z,29.70
2023-05-04T15:26:46.077Z,27.95
2023-05-04T15:27:48.577Z,28.04
2023-05-04T15:28:54.041Z,27.84
2023-05-04T15:29:55.069Z,27.67
2023-05-04T15:30:59.225Z,28.92
2023-05-04T15:32:03.262Z,28.76
2023-05-04T15:33:07.180Z,26.56
2023-05-04T15:34:09.777Z,27.48
2023-05-04T15:35:12.176Z,26.62
2023-05-04T15:36:14.728Z,27.66
2023-05-04T15:37:17.254Z,29.02
2023-05-04T15:38:21.339Z,27.96
2023-05-04T15:39:23.781Z,27.33
2023-05-04T15:40:27.942Z,28.80
2023-05-04T15:41:31.364Z,29.75
2023-05-04T15:42:32.853Z,28.15
2023-05-04T15:43:36.987Z,29.50
2023-05-04T15:44:39.364Z,28.42
2023-05-04T15:45:41.890Z,27.75
2023-05-04T15:46:46.258Z,29.25
2023-05-04T15:47:50.363Z,28.92
2023-05-04T15:48:54.343Z,26.06
2023-05-04T15:49:56.692Z,26.97
2023-05-04T15:50:59.199Z,24.88
2023-05-04T15:52:01.696Z,27.39
2023-05-04T15:53:05.872Z,25.98
2023-05-04T15:54:09.878Z,25.79
2023-05-04T15:55:23.157Z,27.35
2023-05-04T15:56:14.806Z,27.21
2023-05-04T15:57:17.350Z,26.42
2023-05-04T15:58:19.884Z,25.47
2023-05-04T15:59:24.152Z,25.75
2023-05-04T16:00:28.235Z,26.82
2023-05-04T16:01:30.653Z,26.31
2023-05-04T16:02:34.757Z,29.76
2023-05-04T16:03:37.120Z,28.76
2023-05-04T16:04:39.692Z,25.16
2023-05-04T16:05:43.770Z,26.36
2023-05-04T16:06:46.195Z,25.96
2023-05-04T16:07:48.737Z,26.36
2023-05-04T16:08:51.242Z,25.92
2023-05-04T16:09:53.674Z,26.02
2023-05-04T16:10:56.211Z,24.80
2023-05-04T16:12:00.302Z,24.38
2023-05-04T16:13:02.720Z,26.45
2023-05-04T16:14:05.146Z,27.60
2023-05-04T16:15:09.262Z,25.92
2023-05-04T16:16:11.658Z,28.74
2023-05-04T16:17:14.089Z,26.56
2023-05-04T16:18:18.175Z,26.10
2023-05-04T16:19:22.116Z,26.78
2023-05-04T16:20:26.098Z,27.90
2023-05-04T16:21:28.512Z,27.52
2023-05-04T16:22:31.021Z,28.87
2023-05-04T16:23:33.567Z,27.41
2023-05-04T16:24:36.062Z,27.76
2023-05-04T16:25:38.568Z,30.47
2023-05-04T16:26:42.726Z,30.35
2023-05-04T16:27:46.683Z,30.00
2023-05-04T16:28:50.655Z,29.38
2023-05-04T16:29:53.119Z,29.59
2023-05-04T16:30:55.664Z,28.92
2023-05-04T16:31:58.154Z,28.12
2023-05-04T16:33:00.793Z,28.12
2023-05-04T16:34:04.880Z,27.27
2023-05-04T16:35:11.104Z,27.35
2023-05-04T16:36:13.369Z,28.45
2023-05-04T16:37:15.875Z,29.07
2023-05-04T16:38:18.373Z,26.70
2023-05-04T16:39:20.946Z,27.13
2023-05-04T16:40:23.511Z,28.03
2023-05-04T16:41:27.549Z,28.14
2023-05-04T16:42:31.544Z,28.25
2023-05-04T16:43:35.515Z,29.77
2023-05-04T16:44:37.908Z,28.36
2023-05-04T16:45:42.042Z,29.77
2023-05-04T16:46:44.473Z,28.68
2023-05-04T16:47:47.008Z,28.56
2023-05-04T16:48:51.038Z,26.62
2023-05-04T16:49:53.425Z,28.35
2023-05-04T16:50:57.620Z,28.53
2023-05-04T16:51:59.990Z,26.50
2023-05-04T16:53:04.054Z,29.63
2023-05-04T16:54:06.464Z,29.03
2023-05-04T16:55:12.037Z,27.38
2023-05-04T16:56:13.084Z,27.62
2023-05-04T16:57:15.587Z,28.92
2023-05-04T16:58:18.109Z,30.40
2023-05-04T16:59:22.316Z,30.44
2023-05-04T17:00:24.698Z,27.51
2023-05-04T17:01:28.883Z,27.54
2023-05-04T17:02:32.829Z,28.81
2023-05-04T17:03:36.777Z,27.51
2023-05-04T17:04:39.071Z,28.36
2023-05-04T17:05:41.653Z,29.36
2023-05-04T17:06:45.889Z,28.81
2023-05-04T17:07:48.241Z,28.16
2023-05-04T17:08:52.496Z,29.34
2023-05-04T17:09:56.389Z,28.09
2023-05-04T17:10:58.746Z,28.77
2023-05-04T17:12:03.097Z,27.63
2023-05-04T17:13:07.024Z,28.82
2023-05-04T17:14:09.317Z,28.25
2023-05-04T17:15:13.424Z,29.87
2023-05-04T17:16:15.912Z,29.37
2023-05-04T17:17:18.284Z,28.35
2023-05-04T17:18:22.418Z,29.75
2023-05-04T17:19:26.367Z,29.80
2023-05-04T17:20:30.372Z,31.00
2023-05-04T17:21:34.350Z,28.91
2023-05-04T17:22:36.890Z,29.99
2023-05-04T17:23:40.857Z,30.27
2023-05-04T17:24:45.396Z,30.83
2023-05-04T17:25:45.758Z,30.64
2023-05-04T17:26:48.233Z,29.71
2023-05-04T17:27:53.288Z,30.04
2023-05-04T17:28:57.229Z,30.34
2023-05-04T17:29:59.577Z,31.53
2023-05-04T17:31:02.023Z,31.28
2023-05-04T17:32:06.246Z,31.57
2023-05-04T17:33:10.160Z,32.65
2023-05-04T17:34:14.128Z,31.65
2023-05-04T17:35:24.923Z,32.18
2023-05-04T17:36:22.050Z,31.78
2023-05-04T17:37:24.381Z,30.58
2023-05-04T17:38:26.892Z,32.07
2023-05-04T17:39:31.016Z,32.70
2023-05-04T17:40:35.107Z,32.89
2023-05-04T17:41:37.476Z,32.91
2023-05-04T17:42:39.950Z,32.14
2023-05-04T17:43:42.456Z,32.73
2023-05-04T17:44:44.937Z,32.37
2023-05-04T17:45:49.156Z,31.68
2023-05-04T17:46:53.076Z,33.80
2023-05-04T17:47:57.031Z,34.49
2023-05-04T17:49:00.988Z,32.32
2023-05-04T17:50:03.380Z,33.35
2023-05-04T17:51:05.813Z,34.12
2023-05-04T17:52:08.274Z,34.75
2023-05-04T17:53:10.749Z,33.47
2023-05-04T17:54:13.160Z,36.05
2023-05-04T17:55:15.622Z,34.81
2023-05-04T17:56:18.165Z,34.95
2023-05-04T17:57:22.237Z,34.59
2023-05-04T17:58:24.615Z,34.76
2023-05-04T17:59:27.063Z,36.36
2023-05-04T18:00:31.208Z,36.81
2023-05-04T18:01:33.619Z,38.08
2023-05-04T18:02:36.140Z,37.18
2023-05-04T18:03:38.664Z,37.90
2023-05-04T18:04:42.714Z,38.61
2023-05-04T18:05:46.679Z,39.77
2023-05-04T18:06:50.749Z,39.78
2023-05-04T18:07:51.512Z,40.33
2023-05-04T18:08:55.534Z,40.93
2023-05-04T18:09:59.488Z,40.93
2023-05-04T18:11:03.388Z,41.17
2023-05-04T18:12:07.352Z,41.64
2023-05-04T18:13:09.765Z,41.35
2023-05-04T18:14:12.266Z,41.67
2023-05-04T18:15:16.376Z,42.04
2023-05-04T18:16:18.746Z,42.03
2023-05-04T18:17:21.211Z,41.84
2023-05-04T18:18:23.644Z,43.36
2023-05-04T18:19:26.079Z,42.95
2023-05-04T18:20:28.612Z,43.12
2023-05-04T18:21:31.084Z,43.03
2023-05-04T18:22:35.082Z,43.72
2023-05-04T18:23:38.968Z,44.32
2023-05-04T18:24:42.932Z,44.65
2023-05-04T18:25:45.283Z,44.14
2023-05-04T18:26:47.626Z,44.21
2023-05-04T18:27:50.125Z,44.43
2023-05-04T18:28:52.525Z,44.62
2023-05-04T18:29:54.950Z,44.83
2023-05-04T18:30:57.420Z,45.23
2023-05-04T18:31:59.842Z,45.87
2023-05-04T18:33:02.257Z,45.67
2023-05-04T18:34:06.328Z,45.74
2023-05-04T18:35:08.624Z,45.86
2023-05-04T18:36:11.048Z,46.03
2023-05-04T18:37:13.505Z,45.77
2023-05-04T18:38:17.635Z,45.73
2023-05-04T18:39:19.940Z,45.81
2023-05-04T18:40:22.361Z,45.73
2023-05-04T18:41:24.955Z,46.04
2023-05-04T18:42:29.026Z,46.23
2023-05-04T18:43:32.991Z,46.56
2023-05-04T18:44:36.930Z,46.61
2023-05-04T18:54:05.738Z,48.01
2023-05-04T18:55:08.295Z,48.04
2023-05-04T18:56:10.724Z,48.22
2023-05-04T18:57:13.193Z,47.92
2023-05-04T19:06:45.618Z,48.60
2023-05-04T19:07:48.108Z,48.75
2023-05-04T19:17:21.400Z,49.62
2023-05-04T19:26:57.015Z,51.10
2023-05-04T19:27:59.437Z,50.97
2023-05-04T19:37:32.445Z,52.09
2023-05-04T19:47:06.848Z,52.52
2023-05-04T19:56:40.441Z,52.61
2023-05-04T20:06:14.056Z,53.05
2023-05-04T20:15:47.742Z,53.59
2023-05-04T20:25:22.828Z,54.04
2023-05-04T20:34:55.061Z,54.20
2023-05-04T20:35:57.583Z,53.87
2023-05-04T20:45:30.684Z,53.98
2023-05-04T20:55:04.006Z,54.61
2023-05-04T21:04:39.717Z,55.42
2023-05-04T21:14:11.678Z,56.06
2023-05-04T21:23:45.969Z,59.30
2023-05-04T21:33:21.416Z,60.00
2023-05-04T21:42:55.370Z,61.47
2023-05-04T21:52:27.592Z,62.19
2023-05-04T22:02:01.666Z,62.93
2023-05-04T22:11:37.513Z,64.08
2023-05-04T22:21:11.223Z,63.63
2023-05-04T22:30:43.508Z,65.64
2023-05-04T22:40:18.041Z,66.14
2023-05-04T22:49:52.295Z,66.54
2023-05-04T22:59:26.464Z,67.21
2023-05-04T23:09:02.293Z,67.58
2023-05-04T23:18:34.988Z,67.28
2023-05-04T23:28:08.803Z,69.00
2023-05-04T23:37:43.314Z,71.14
2023-05-04T23:47:17.198Z,71.20
2023-05-04T23:56:53.026Z,72.54
